Time;durP1;ratioP1;P1;durP2;ratioP2;P2;SDS_P1;SDS_P2;PMS_P1;PMS_P2;Temp;Humidity;BMP_temperature;BMP_pressure;BME280_temperature;BME280_humidity;BME280_pressure;Samples;Min_cycle;Max_cycle;Signal;HPM_P1;HPM_P2
2023/10/01 00:00:05;;;;;;;6.78;2.67;;;12.60;99.90;;;;;;5073719;28;20107;-70
2023/10/01 00:02:32;;;;;;;5.07;2.50;;;12.60;99.90;;;;;;5074045;28;20029;-70
2023/10/01 00:04:59;;;;;;;6.20;2.63;;;12.60;99.90;;;;;;5075468;28;20461;-70
2023/10/01 00:07:26;;;;;;;7.90;3.47;;;12.60;99.90;;;;;;5056307;28;20025;-70
2023/10/01 00:09:52;;;;;;;9.55;2.80;;;12.60;99.90;;;;;;5073921;28;20033;-69
2023/10/01 00:12:18;;;;;;;6.35;2.40;;;12.60;99.90;;;;;;5073883;28;20029;-70
2023/10/01 00:14:44;;;;;;;5.35;2.70;;;12.60;99.90;;;;;;5074189;28;20054;-70
2023/10/01 00:17:09;;;;;;;5.53;2.90;;;12.60;99.90;;;;;;5074159;28;20032;-70
2023/10/01 00:19:38;;;;;;;7.78;3.65;;;12.60;99.90;;;;;;5074054;28;20031;-70
2023/10/01 00:22:04;;;;;;;5.97;2.45;;;12.60;99.90;;;;;;5075065;28;20052;-70
2023/10/01 00:24:29;;;;;;;9.88;3.42;;;12.60;99.90;;;;;;5074187;28;20048;-70
2023/10/01 00:26:55;;;;;;;8.90;2.83;;;12.60;99.90;;;;;;5056051;28;20062;-70
2023/10/01 00:29:22;;;;;;;6.10;2.40;;;12.60;99.90;;;;;;5076529;28;20533;-70
2023/10/01 00:31:49;;;;;;;8.48;3.47;;;12.60;99.90;;;;;;5058662;28;20029;-70
2023/10/01 00:34:15;;;;;;;7.13;2.65;;;12.60;99.90;;;;;;5076597;28;20020;-70
2023/10/01 00:36:43;;;;;;;4.22;2.38;;;12.60;99.90;;;;;;5076129;28;20048;-70
2023/10/01 00:39:09;;;;;;;6.78;2.30;;;12.60;99.90;;;;;;5058731;28;20028;-70
2023/10/01 00:41:35;;;;;;;6.32;2.20;;;12.60;99.90;;;;;;5076433;28;20027;-70
2023/10/01 00:44:03;;;;;;;10.93;2.58;;;12.60;99.90;;;;;;5058443;28;20115;-70
2023/10/01 00:46:29;;;;;;;8.98;2.72;;;12.60;99.90;;;;;;5076358;28;20079;-70
2023/10/01 00:48:56;;;;;;;11.20;2.70;;;12.70;99.90;;;;;;5058210;28;20090;-70
2023/10/01 00:51:21;;;;;;;10.95;2.58;;;12.70;99.90;;;;;;5058274;28;20077;-70
2023/10/01 00:53:49;;;;;;;6.90;2.38;;;12.70;99.90;;;;;;5058351;28;20029;-70
2023/10/01 00:56:16;;;;;;;4.85;2.42;;;12.70;99.90;;;;;;5076235;28;20025;-70
2023/10/01 00:58:43;;;;;;;6.55;2.42;;;12.70;99.90;;;;;;5076099;28;20107;-70
2023/10/01 01:01:09;;;;;;;7.82;2.70;;;12.60;99.90;;;;;;5076630;28;20067;-70
2023/10/01 01:03:36;;;;;;;6.13;2.70;;;12.60;99.90;;;;;;5076861;28;20433;-70
2023/10/01 01:08:33;;;;;;;8.40;3.67;;;12.60;99.90;;;;;;5076092;28;20062;-71
2023/10/01 01:11:03;;;;;;;7.28;2.63;;;12.60;99.90;;;;;;5076060;28;20353;-70
2023/10/01 01:13:30;;;;;;;8.95;3.30;;;12.50;99.90;;;;;;5076208;28;20472;-70
2023/10/01 01:15:57;;;;;;;9.73;2.90;;;12.60;99.90;;;;;;5076026;28;20021;-70
2023/10/01 01:18:27;;;;;;;7.07;2.63;;;12.60;99.90;;;;;;5057595;28;20119;-70
2023/10/01 01:21:05;;;;;;;9.05;2.65;;;12.60;99.90;;;;;;5075666;28;20036;-70
2023/10/01 01:23:31;;;;;;;6.65;2.67;;;12.70;99.90;;;;;;5058092;28;20081;-70
2023/10/01 01:25:57;;;;;;;5.40;2.85;;;12.70;99.90;;;;;;5075674;28;20074;-70
2023/10/01 01:28:32;;;;;;;6.00;2.40;;;12.70;99.90;;;;;;5057527;28;20064;-70
2023/10/01 01:30:59;;;;;;;7.65;2.72;;;12.80;99.90;;;;;;5076065;28;20036;-71
2023/10/01 01:33:40;;;;;;;10.13;2.75;;;12.80;99.90;;;;;;5075451;28;20025;-70
2023/10/01 01:36:09;;;;;;;5.07;2.38;;;12.80;99.90;;;;;;5075822;28;20102;-70
2023/10/01 01:38:37;;;;;;;6.72;2.67;;;12.80;99.90;;;;;;5056604;28;20056;-70
2023/10/01 01:41:03;;;;;;;7.53;2.40;;;12.90;99.90;;;;;;5075221;28;20028;-70
2023/10/01 01:43:32;;;;;;;5.78;2.90;;;12.90;99.90;;;;;;5057279;28;20029;-70
2023/10/01 01:46:08;;;;;;;11.15;4.03;;;12.90;99.90;;;;;;5075183;28;20028;-70
2023/10/01 01:48:40;;;;;;;7.25;2.80;;;13.00;99.90;;;;;;5057228;28;20037;-70
2023/10/01 01:51:07;;;;;;;6.35;2.40;;;13.00;99.90;;;;;;5075153;28;20016;-70
2023/10/01 01:53:36;;;;;;;5.28;2.85;;;13.00;99.90;;;;;;5075048;28;20025;-70
2023/10/01 01:56:16;;;;;;;18.17;3.75;;;13.10;99.90;;;;;;5074953;28;20029;-70
2023/10/01 01:58:43;;;;;;;8.07;2.70;;;13.10;99.90;;;;;;5057024;28;20060;-70
2023/10/01 02:01:17;;;;;;;5.72;2.90;;;13.10;99.90;;;;;;5074596;28;20526;-70
2023/10/01 02:03:46;;;;;;;5.55;2.05;;;13.20;99.90;;;;;;5074938;28;20023;-70
2023/10/01 02:06:13;;;;;;;6.13;2.60;;;13.20;99.90;;;;;;5074783;28;20028;-70
2023/10/01 02:08:49;;;;;;;6.32;2.17;;;13.20;99.90;;;;;;5074450;28;20388;-70
2023/10/01 02:11:19;;;;;;;7.10;2.33;;;13.30;99.90;;;;;;5075100;28;20035;-70
2023/10/01 02:13:46;;;;;;;;;;;13.30;99.90;;;;;;5075158;28;20024;-70
2023/10/01 02:16:18;;;;;;;4.68;2.30;;;13.30;99.90;;;;;;5074863;28;20347;-70
2023/10/01 02:18:56;;;;;;;6.63;2.30;;;13.40;99.90;;;;;;5074682;28;20020;-70
2023/10/01 02:21:43;;;;;;;8.57;2.17;;;13.40;99.90;;;;;;5057048;28;20035;-70
2023/10/01 02:24:11;;;;;;;3.17;2.15;;;13.30;99.90;;;;;;5057149;28;20031;-70
2023/10/01 02:26:41;;;;;;;6.60;2.42;;;13.40;99.90;;;;;;5074451;28;20028;-70
2023/10/01 02:29:15;;;;;;;7.03;2.58;;;13.40;99.90;;;;;;5074340;28;20082;-70
2023/10/01 02:31:55;;;;;;;9.38;2.88;;;13.50;99.90;;;;;;5074581;28;20028;-70
2023/10/01 02:34:21;;;;;;;5.00;2.28;;;13.50;99.90;;;;;;5074380;28;20032;-70
2023/10/01 02:36:47;;;;;;;3.80;2.35;;;13.50;99.90;;;;;;5074222;28;20123;-70
2023/10/01 02:39:47;;;;;;;4.70;2.22;;;13.50;99.90;;;;;;5073838;28;20036;-70
2023/10/01 02:44:46;;;;;;;6.30;2.60;;;13.50;99.90;;;;;;5074144;28;20125;-70
2023/10/01 02:47:20;;;;;;;5.20;2.17;;;13.50;99.90;;;;;;5074148;28;20159;-70
2023/10/01 02:49:53;;;;;;;4.72;2.72;;;13.50;99.90;;;;;;5074309;28;20068;-70
2023/10/01 02:52:25;;;;;;;9.60;2.75;;;13.60;99.90;;;;;;5074353;28;20361;-70
2023/10/01 02:54:54;;;;;;;7.22;2.40;;;13.60;99.90;;;;;;5056351;28;20020;-70
2023/10/01 02:57:24;;;;;;;5.53;2.20;;;13.60;99.90;;;;;;5073978;28;20020;-70
2023/10/01 03:00:20;;;;;;;6.38;2.25;;;13.60;99.90;;;;;;5074260;28;20020;-70
2023/10/01 03:02:51;;;;;;;7.28;2.38;;;13.60;99.90;;;;;;5074056;28;20031;-70
2023/10/01 03:07:52;;;;;;;5.60;2.38;;;13.60;99.90;;;;;;5073802;28;20024;-70
2023/10/01 03:10:25;;;;;;;7.03;2.38;;;13.70;99.90;;;;;;5056066;28;20199;-70
2023/10/01 03:12:56;;;;;;;17.35;3.78;;;13.70;99.90;;;;;;5056131;28;20039;-70
2023/10/01 03:15:29;;;;;;;6.32;2.70;;;13.70;99.90;;;;;;5055781;28;20055;-70
2023/10/01 03:18:06;;;;;;;13.35;3.85;;;13.70;99.90;;;;;;5073851;28;20020;-71
2023/10/01 03:23:05;;;;;;;8.75;3.13;;;13.70;99.90;;;;;;5075284;28;20460;-70
2023/10/01 03:25:41;;;;;;;8.40;2.60;;;13.70;99.90;;;;;;5074900;28;20108;-70
2023/10/01 03:28:26;;;;;;;7.15;2.40;;;13.70;99.90;;;;;;5074425;28;20403;-70
2023/10/01 03:31:09;;;;;;;5.72;2.75;;;13.70;99.90;;;;;;5073862;28;20024;-70
2023/10/01 03:33:40;;;;;;;6.63;2.63;;;13.70;99.90;;;;;;5055648;28;20469;-70
2023/10/01 03:36:10;;;;;;;4.97;2.40;;;13.70;99.90;;;;;;5067232;28;20044;-70
2023/10/01 03:38:44;;;;;;;3.60;2.15;;;13.80;99.90;;;;;;5093699;28;20086;-70
2023/10/01 03:41:20;;;;;;;8.18;3.20;;;13.80;99.90;;;;;;5092460;28;20040;-70
2023/10/01 03:43:50;;;;;;;7.32;2.55;;;13.80;99.90;;;;;;5093672;28;20024;-70
2023/10/01 03:46:26;;;;;;;;;;;13.80;99.90;;;;;;5094123;28;20103;-70
2023/10/01 03:48:58;;;;;;;9.60;2.30;;;13.70;99.90;;;;;;5093668;28;19916;-70
2023/10/01 03:51:28;;;;;;;5.47;2.47;;;13.70;99.90;;;;;;5092794;28;20026;-71
2023/10/01 03:54:06;;;;;;;4.47;2.50;;;13.70;99.90;;;;;;5093607;28;20110;-70
2023/10/01 03:56:33;;;;;;;7.40;2.50;;;13.70;99.90;;;;;;5093613;28;20452;-70
2023/10/01 03:59:00;;;;;;;4.75;2.17;;;13.70;99.90;;;;;;5093515;28;20027;-70
2023/10/01 04:01:32;;;;;;;8.20;2.80;;;13.70;99.90;;;;;;5093545;28;20109;-70
2023/10/01 04:04:00;;;;;;;4.28;2.40;;;13.70;99.90;;;;;;5097491;28;20026;-71
2023/10/01 04:06:27;;;;;;;5.50;2.70;;;13.70;99.90;;;;;;5096065;28;20491;-70
2023/10/01 04:08:55;;;;;;;5.55;2.70;;;13.70;99.90;;;;;;5097291;28;20028;-71
2023/10/01 04:11:41;;;;;;;5.32;2.63;;;13.70;99.90;;;;;;5097348;28;20415;-71
2023/10/01 04:14:17;;;;;;;7.20;2.67;;;13.80;99.90;;;;;;5097502;28;20091;-71
2023/10/01 04:16:48;;;;;;;5.03;2.15;;;13.80;99.90;;;;;;5097369;28;20027;-70
2023/10/01 04:19:18;;;;;;;5.90;2.65;;;13.90;99.90;;;;;;5096034;28;20077;-70
2023/10/01 04:21:50;;;;;;;8.77;2.50;;;13.90;99.90;;;;;;5095776;28;20074;-71
2023/10/01 04:24:17;;;;;;;9.45;2.40;;;13.90;99.90;;;;;;5097148;28;20111;-71
2023/10/01 04:26:42;;;;;;;6.20;3.00;;;13.90;99.90;;;;;;5096969;28;20456;-70
2023/10/01 04:29:08;;;;;;;6.43;2.58;;;13.90;99.90;;;;;;5096824;28;20032;-70
2023/10/01 04:31:47;;;;;;;4.60;2.40;;;14.00;99.90;;;;;;5097009;28;20103;-70
2023/10/01 04:34:15;;;;;;;4.88;2.50;;;14.00;99.90;;;;;;5097143;28;20023;-70
2023/10/01 04:36:50;;;;;;;5.30;2.50;;;14.00;99.90;;;;;;5084379;28;20049;-71
2023/10/01 04:39:17;;;;;;;6.03;2.72;;;14.00;99.90;;;;;;5058902;28;20031;-70
2023/10/01 04:41:45;;;;;;;6.00;2.60;;;14.00;99.90;;;;;;5076434;28;20029;-71
2023/10/01 04:44:13;;;;;;;8.90;3.40;;;14.00;99.90;;;;;;5058353;28;20028;-70
2023/10/01 04:46:45;;;;;;;7.55;3.75;;;14.00;99.90;;;;;;5076065;28;20469;-70
2023/10/01 04:49:27;;;;;;;7.78;2.85;;;14.00;99.90;;;;;;5058467;28;20425;-71
2023/10/01 04:51:58;;;;;;;7.95;2.90;;;14.00;99.90;;;;;;5058255;28;20020;-71
2023/10/01 04:54:25;;;;;;;5.75;3.20;;;14.00;99.90;;;;;;5058138;28;20025;-70
2023/10/01 04:56:55;;;;;;;5.85;2.63;;;14.00;99.90;;;;;;5076080;28;20029;-70
2023/10/01 04:59:20;;;;;;;4.10;2.50;;;14.00;99.90;;;;;;5058333;28;20036;-70
2023/10/01 05:01:56;;;;;;;6.47;2.60;;;14.00;99.90;;;;;;5058012;28;20026;-70
2023/10/01 05:04:28;;;;;;;6.03;2.67;;;14.00;99.90;;;;;;5076236;28;20024;-70
2023/10/01 05:07:00;;;;;;;8.82;2.85;;;14.00;99.90;;;;;;5075907;28;20024;-70
2023/10/01 05:09:28;;;;;;;6.90;2.75;;;14.00;99.90;;;;;;5076018;28;20055;-70
2023/10/01 05:11:55;;;;;;;6.07;2.90;;;14.10;99.90;;;;;;5057882;28;20036;-70
2023/10/01 05:14:22;;;;;;;6.28;3.35;;;14.10;99.90;;;;;;5074321;28;20524;-70
2023/10/01 05:16:49;;;;;;;6.25;3.08;;;14.20;99.90;;;;;;5075807;28;20028;-71
2023/10/01 05:19:15;;;;;;;4.45;2.50;;;14.30;99.90;;;;;;5057478;28;20043;-70
2023/10/01 05:21:49;;;;;;;7.10;2.60;;;14.30;99.90;;;;;;5057683;28;20028;-70
2023/10/01 05:24:31;;;;;;;6.07;2.40;;;14.40;99.90;;;;;;5075617;28;20016;-70
2023/10/01 05:26:57;;;;;;;5.57;2.97;;;14.40;99.90;;;;;;5075697;28;20028;-70
2023/10/01 05:29:25;;;;;;;5.93;2.50;;;14.50;99.90;;;;;;5057329;28;20082;-70
2023/10/01 05:31:51;;;;;;;7.85;2.63;;;14.40;99.90;;;;;;5075429;28;20115;-70
2023/10/01 05:34:19;;;;;;;7.57;2.47;;;14.50;99.90;;;;;;5075713;28;20112;-70
2023/10/01 05:36:45;;;;;;;4.70;2.47;;;14.50;99.90;;;;;;5075496;28;20044;-70
2023/10/01 05:39:11;;;;;;;7.47;2.85;;;14.50;99.90;;;;;;5057365;28;20032;-70
2023/10/01 05:41:44;;;;;;;8.18;2.83;;;14.50;99.90;;;;;;5057281;28;20028;-70
2023/10/01 05:44:11;;;;;;;4.78;2.72;;;14.50;99.90;;;;;;5075562;28;20032;-70
2023/10/01 05:46:36;;;;;;;6.18;3.28;;;14.50;99.90;;;;;;5057235;28;20025;-70
2023/10/01 05:49:03;;;;;;;8.30;2.70;;;14.50;99.90;;;;;;5075027;28;20036;-70
2023/10/01 05:51:48;;;;;;;4.63;2.40;;;14.50;99.90;;;;;;5057186;28;20031;-70
2023/10/01 05:54:21;;;;;;;7.57;3.25;;;14.50;99.90;;;;;;5057193;28;20025;-70
2023/10/01 05:56:48;;;;;;;6.72;3.30;;;14.60;99.90;;;;;;5057238;28;20037;-70
2023/10/01 05:59:16;;;;;;;6.78;3.53;;;14.70;99.90;;;;;;5074755;28;20033;-70
2023/10/01 06:01:43;;;;;;;5.70;3.40;;;14.80;99.90;;;;;;5057362;28;20111;-70
2023/10/01 06:04:12;;;;;;;6.30;3.45;;;14.90;99.90;;;;;;5075106;28;20108;-70
2023/10/01 06:06:45;;;;;;;7.95;3.35;;;14.90;99.90;;;;;;5074889;28;20020;-70
2023/10/01 06:09:14;;;;;;;7.90;3.70;;;15.00;99.90;;;;;;5056923;28;20040;-70
2023/10/01 06:11:44;;;;;;;6.80;2.58;;;15.00;99.90;;;;;;5056730;28;20031;-70
2023/10/01 06:17:00;;;;;;;7.78;3.45;;;15.10;99.90;;;;;;5074475;28;20074;-60
2023/10/01 06:19:33;;;;;;;7.53;4.10;;;15.20;99.90;;;;;;5074485;28;20120;-60
2023/10/01 06:24:47;;;;;;;7.28;3.17;;;15.30;99.90;;;;;;5074183;28;20031;-61
2023/10/01 06:27:17;;;;;;;8.85;3.47;;;15.50;99.90;;;;;;5056380;28;20025;-70
2023/10/01 06:29:49;;;;;;;5.50;2.78;;;15.60;99.90;;;;;;5056155;28;20028;-71
2023/10/01 06:32:26;;;;;;;7.53;2.50;;;15.70;99.90;;;;;;5074125;28;20119;-70
2023/10/01 06:34:57;;;;;;;7.13;2.50;;;15.70;99.90;;;;;;5074392;28;20031;-69
2023/10/01 06:37:22;;;;;;;8.55;2.67;;;15.80;99.90;;;;;;5074854;28;20051;-70
2023/10/01 06:39:48;;;;;;;5.88;2.35;;;15.90;99.90;;;;;;5075247;28;20442;-69
2023/10/01 06:42:20;;;;;;;8.23;3.00;;;16.20;99.90;;;;;;5081051;28;20104;-69
2023/10/01 06:44:50;;;;;;;11.70;3.25;;;16.60;99.90;;;;;;5060608;28;20024;-69
2023/10/01 06:47:22;;;;;;;6.70;3.30;;;16.70;99.90;;;;;;5075962;28;20038;-65
2023/10/01 06:50:07;;;;;;;14.82;4.97;;;16.80;99.90;;;;;;5075337;28;20434;-66
2023/10/01 06:52:41;;;;;;;8.43;4.28;;;17.00;99.90;;;;;;5056363;28;20031;-66
2023/10/01 06:55:07;;;;;;;10.45;4.38;;;17.10;99.90;;;;;;5075522;28;20024;-65
2023/10/01 06:57:33;;;;;;;12.38;5.13;;;17.30;99.90;;;;;;5058437;28;20044;-68
2023/10/01 07:00:00;;;;;;;10.73;4.47;;;17.60;99.90;;;;;;5074894;28;20400;-68
2023/10/01 07:02:29;;;;;;;8.98;4.30;;;17.70;99.90;;;;;;5075764;28;20032;-67
2023/10/01 07:05:00;;;;;;;10.27;4.30;;;17.80;99.90;;;;;;5074427;28;20066;-67
2023/10/01 07:07:28;;;;;;;7.18;3.55;;;17.90;99.90;;;;;;5036616;28;20029;-68
2023/10/01 07:09:59;;;;;;;10.48;4.85;;;18.10;99.90;;;;;;5053532;28;20029;-67
2023/10/01 07:12:25;;;;;;;13.02;3.90;;;18.40;99.90;;;;;;5036382;28;20481;-67
2023/10/01 07:14:52;;;;;;;10.07;4.18;;;18.40;99.90;;;;;;5053746;28;20060;-67
2023/10/01 07:17:25;;;;;;;6.47;3.72;;;18.30;99.90;;;;;;5053509;28;20033;-67
2023/10/01 07:20:02;;;;;;;6.85;3.70;;;18.10;99.90;;;;;;5053709;28;20025;-68
2023/10/01 07:22:32;;;;;;;7.30;3.90;;;18.00;99.90;;;;;;5053741;28;20029;-67
2023/10/01 07:25:05;;;;;;;7.07;4.03;;;18.10;99.90;;;;;;5053791;28;20025;-65
2023/10/01 07:27:31;;;;;;;7.40;3.97;;;18.10;99.90;;;;;;5053754;28;20082;-67
2023/10/01 07:29:58;;;;;;;7.63;4.28;;;18.10;99.90;;;;;;5035925;28;20033;-67
2023/10/01 07:32:25;;;;;;;8.77;4.03;;;18.20;99.90;;;;;;5035523;28;20036;-67
2023/10/01 07:34:59;;;;;;;8.13;4.07;;;18.40;99.90;;;;;;5035829;28;20524;-67
2023/10/01 07:37:26;;;;;;;8.93;4.35;;;18.40;99.90;;;;;;5054892;28;20037;-67
2023/10/01 07:39:56;;;;;;;8.77;4.40;;;18.20;99.90;;;;;;5039576;28;20063;-67
2023/10/01 07:42:25;;;;;;;9.35;4.85;;;18.20;99.90;;;;;;5057251;28;20454;-59
2023/10/01 07:44:52;;;;;;;13.43;4.60;;;18.30;99.90;;;;;;5039587;28;20063;-58
2023/10/01 07:47:28;;;;;;;7.07;3.90;;;18.40;99.90;;;;;;5057155;28;20485;-58
2023/10/01 07:50:11;;;;;;;6.43;3.90;;;18.40;99.90;;;;;;5057212;28;20029;-58
2023/10/01 07:52:36;;;;;;;7.70;4.07;;;19.00;99.90;;;;;;5057384;28;20422;-58
2023/10/01 07:55:29;;;;;;;6.90;4.50;;;19.70;99.90;;;;;;5057491;28;20055;-73
2023/10/01 07:57:49;;;;;;;8.32;4.97;;;20.20;99.90;;;;;;5057221;28;20021;-71
2023/10/01 08:00:26;;;;;;;8.35;4.10;;;20.50;99.90;;;;;;5056948;28;20041;-70
2023/10/01 08:05:38;;;;;;;8.88;5.10;;;20.80;99.90;;;;;;5057136;28;20028;-74
2023/10/01 08:08:08;;;;;;;7.83;4.63;;;20.90;99.90;;;;;;5057061;28;20048;-73
2023/10/01 08:10:37;;;;;;;8.02;4.57;;;21.20;99.90;;;;;;5039115;28;20029;-75
2023/10/01 08:13:07;;;;;;;;;;;21.50;99.90;;;;;;5039816;28;20511;-80
2023/10/01 08:15:39;;;;;;;7.32;4.70;;;21.90;99.80;;;;;;5057092;28;20015;-74
2023/10/01 08:20:58;;;;;;;7.15;4.43;;;22.50;98.00;;;;;;5057047;28;20059;-78
2023/10/01 08:23:54;;;;;;;10.23;5.07;;;22.80;96.90;;;;;;5111914;27;20384;-76
2023/10/01 08:32:37;;;;;;;8.48;5.15;;;23.80;93.90;;;;;;5132278;27;20441;-71
2023/10/01 08:35:08;;;;;;;10.18;5.45;;;24.00;93.60;;;;;;5111861;28;20482;-69
2023/10/01 08:37:37;;;;;;;7.63;4.55;;;24.20;92.50;;;;;;5093767;28;20028;-75
2023/10/01 08:40:17;;;;;;;7.20;4.30;;;24.30;92.40;;;;;;5111580;28;20120;-73
2023/10/01 08:42:47;;;;;;;7.45;4.50;;;24.80;90.80;;;;;;5111593;28;20065;-74
2023/10/01 08:45:17;;;;;;;8.27;4.70;;;25.10;89.80;;;;;;5092491;28;20028;-74
2023/10/01 08:47:45;;;;;;;7.55;4.53;;;25.10;89.50;;;;;;5102115;28;20111;-73
2023/10/01 08:50:27;;;;;;;7.33;3.83;;;25.10;87.20;;;;;;5090934;28;20460;-73
2023/10/01 08:53:17;;;;;;;8.75;4.32;;;25.20;86.50;;;;;;5087786;28;20030;-72
2023/10/01 08:58:48;;;;;;;6.60;4.43;;;26.00;82.10;;;;;;5091256;28;20404;-72
2023/10/01 09:01:12;;;;;;;5.90;4.07;;;25.60;81.90;;;;;;5088592;28;20032;-76
2023/10/01 09:03:39;;;;;;;6.25;4.03;;;25.10;83.80;;;;;;5073476;28;20360;-79
2023/10/01 09:06:08;;;;;;;10.20;4.28;;;25.10;82.90;;;;;;5091128;28;20029;-73
2023/10/01 09:08:43;;;;;;;8.77;4.47;;;24.60;83.20;;;;;;5090678;28;20031;-73
2023/10/01 09:11:14;;;;;;;13.77;4.72;;;24.50;84.40;;;;;;5090630;28;20440;-74
2023/10/01 09:16:42;;;;;;;8.68;4.28;;;24.20;82.30;;;;;;5090748;28;20051;-68
2023/10/01 09:21:57;;;;;;;8.68;4.50;;;23.70;86.10;;;;;;5090330;28;20036;-69
2023/10/01 09:24:41;;;;;;;7.35;3.88;;;24.10;85.50;;;;;;5091335;28;20020;-68
2023/10/01 09:27:09;;;;;;;7.15;4.57;;;23.70;85.30;;;;;;5076132;28;20345;-66
2023/10/01 09:29:44;;;;;;;8.38;4.32;;;23.40;86.00;;;;;;5092480;28;20020;-58
2023/10/01 09:32:11;;;;;;;9.00;4.03;;;23.20;87.40;;;;;;5072261;28;20052;-57
2023/10/01 09:34:46;;;;;;;7.57;4.45;;;23.00;88.60;;;;;;5070212;28;20025;-67
2023/10/01 09:37:34;;;;;;;7.03;4.30;;;23.60;87.10;;;;;;5070067;28;20456;-67
2023/10/01 09:42:57;;;;;;;7.15;3.88;;;25.50;83.50;;;;;;5061552;28;20035;-69
2023/10/01 09:45:38;;;;;;;6.18;3.80;;;26.20;79.60;;;;;;5056705;28;20484;-71
2023/10/01 09:48:09;;;;;;;5.85;3.85;;;26.00;77.90;;;;;;5056682;28;20033;-70
2023/10/01 09:50:42;;;;;;;6.05;3.67;;;26.00;76.60;;;;;;5056882;28;20020;-70
2023/10/01 09:53:12;;;;;;;6.63;3.92;;;26.70;75.00;;;;;;5056687;28;20021;-70
2023/10/01 09:55:48;;;;;;;7.30;4.20;;;26.60;75.10;;;;;;5056631;28;20021;-70
2023/10/01 09:58:29;;;;;;;7.03;4.13;;;27.00;73.30;;;;;;5056495;28;20021;-70
2023/10/01 10:01:01;;;;;;;9.32;4.47;;;25.70;72.20;;;;;;5056582;28;20032;-70
2023/10/01 10:03:36;;;;;;;9.00;4.78;;;24.80;75.00;;;;;;5057079;28;20035;-70
2023/10/01 10:06:06;;;;;;;9.32;5.25;;;24.80;75.70;;;;;;5056786;28;20021;-71
2023/10/01 10:08:37;;;;;;;8.98;4.95;;;24.80;75.00;;;;;;5057501;28;20047;-74
2023/10/01 10:11:07;;;;;;;9.15;4.90;;;25.50;74.10;;;;;;5058651;28;20025;-71
2023/10/01 10:13:45;;;;;;;8.32;5.15;;;26.10;71.80;;;;;;5057955;28;20016;-70
2023/10/01 10:16:31;;;;;;;8.47;5.20;;;26.30;70.60;;;;;;5040419;28;20025;-71
2023/10/01 10:19:15;;;;;;;8.10;4.82;;;27.40;69.50;;;;;;5056872;28;20259;-71
2023/10/01 10:24:46;;;;;;;9.15;5.32;;;27.90;66.20;;;;;;5056068;28;20028;-71
2023/10/01 10:27:35;;;;;;;9.82;5.85;;;27.10;66.60;;;;;;5038484;28;20017;-71
2023/10/01 10:30:01;;;;;;;;;;;25.70;69.50;;;;;;5040219;28;20039;-69
2023/10/01 10:32:31;;;;;;;8.82;5.10;;;24.50;72.90;;;;;;5055753;28;20003;-69
2023/10/01 10:35:06;;;;;;;8.75;4.85;;;23.50;75.50;;;;;;5056069;28;20031;-71
2023/10/01 10:37:56;;;;;;;7.72;4.70;;;23.00;77.20;;;;;;5038615;28;20078;-70
2023/10/01 10:40:27;;;;;;;13.75;6.10;;;22.60;79.20;;;;;;5056298;28;20425;-71
2023/10/01 10:42:58;;;;;;;10.60;5.10;;;22.20;80.20;;;;;;5037693;28;20441;-71
2023/10/01 10:45:42;;;;;;;8.63;5.13;;;23.50;79.60;;;;;;5038292;28;20048;-70
2023/10/01 10:48:10;;;;;;;9.52;5.35;;;24.90;75.40;;;;;;5037820;28;20028;-71
2023/10/01 10:50:56;;;;;;;10.30;5.05;;;25.30;72.30;;;;;;5056025;28;20082;-71
2023/10/01 10:53:22;;;;;;;8.10;4.93;;;25.20;72.00;;;;;;5037168;28;20461;-69
2023/10/01 10:56:01;;;;;;;7.72;5.07;;;24.40;73.70;;;;;;5054342;28;20451;-69
2023/10/01 10:58:29;;;;;;;9.07;5.15;;;23.90;74.90;;;;;;5055256;28;20025;-71
2023/10/01 11:00:56;;;;;;;9.48;5.50;;;23.50;76.60;;;;;;5055130;28;20136;-71
2023/10/01 11:03:40;;;;;;;10.10;5.65;;;23.20;77.40;;;;;;5037016;28;20028;-70
2023/10/01 11:06:44;;;;;;;8.88;5.35;;;24.10;76.90;;;;;;5055376;28;20376;-69
2023/10/01 11:09:25;;;;;;;8.90;5.43;;;24.90;73.30;;;;;;5055450;28;20044;-69
2023/10/01 11:12:07;;;;;;;10.70;4.95;;;25.50;71.40;;;;;;5055142;28;20059;-69
2023/10/01 11:14:34;;;;;;;10.13;4.97;;;25.80;69.70;;;;;;5054883;28;20025;-68
2023/10/01 11:17:00;;;;;;;8.10;5.10;;;26.70;68.90;;;;;;5020329;28;20017;-69
2023/10/01 11:19:27;;;;;;;9.50;5.03;;;27.30;66.20;;;;;;5054671;28;20103;-69
2023/10/01 11:22:00;;;;;;;6.90;4.60;;;27.30;65.30;;;;;;5037309;28;20021;-69
2023/10/01 11:24:31;;;;;;;9.90;5.10;;;27.80;64.60;;;;;;5037157;28;20025;-70
2023/10/01 11:27:25;;;;;;;11.65;5.35;;;28.30;63.10;;;;;;5054459;28;20028;-70
2023/10/01 11:30:15;;;;;;;9.70;5.10;;;28.30;62.80;;;;;;5054672;28;20479;-70
2023/10/01 11:35:59;;;;;;;8.57;5.18;;;30.10;59.20;;;;;;5054646;28;20074;-72
2023/10/01 11:38:25;;;;;;;7.63;5.03;;;30.40;56.20;;;;;;5054615;28;20087;-70
2023/10/01 11:41:09;;;;;;;7.18;4.70;;;30.10;54.50;;;;;;5054748;28;20025;-70
2023/10/01 11:43:58;;;;;;;7.70;5.05;;;30.00;54.70;;;;;;5054901;28;20013;-71
2023/10/01 11:49:16;;;;;;;7.93;5.55;;;28.70;56.20;;;;;;5054320;28;20103;-71
2023/10/01 11:51:50;;;;;;;7.22;4.25;;;28.60;56.20;;;;;;5036202;28;20036;-61
2023/10/01 11:54:43;;;;;;;8.18;4.97;;;28.30;57.50;;;;;;5054458;28;20032;-60
2023/10/01 11:57:25;;;;;;;8.82;5.22;;;28.60;56.20;;;;;;5036113;28;20024;-59
2023/10/01 11:59:56;;;;;;;10.52;5.05;;;28.20;56.80;;;;;;5054224;28;20047;-59
2023/10/01 12:02:25;;;;;;;8.55;5.00;;;27.60;58.80;;;;;;5054020;28;20024;-59
2023/10/01 12:04:59;;;;;;;;;;;27.80;59.50;;;;;;5036098;28;20043;-70
2023/10/01 12:07:32;;;;;;;10.63;5.68;;;28.30;59.30;;;;;;5054326;28;19946;-72
2023/10/01 12:10:05;;;;;;;10.52;5.43;;;28.70;56.90;;;;;;5053831;28;20016;-71
2023/10/01 12:12:37;;;;;;;8.43;4.95;;;28.80;55.40;;;;;;5036538;28;20139;-71
2023/10/01 12:15:52;;;;;;;8.95;4.75;;;28.90;55.30;;;;;;5053839;28;20017;-71
2023/10/01 12:17:52;;;;;;;9.55;5.20;;;29.30;54.30;;;;;;5046408;28;20033;-74
2023/10/01 12:20:31;;;;;;;7.93;4.85;;;30.10;53.20;;;;;;5035677;28;20021;-74
2023/10/01 12:23:11;;;;;;;9.10;5.40;;;30.10;53.60;;;;;;5054108;28;20032;-73
2023/10/01 12:31:48;;;;;;;8.32;4.82;;;29.40;53.40;;;;;;5001894;28;20172;-73
2023/10/01 12:34:14;;;;;;;8.43;5.40;;;29.20;53.60;;;;;;5062067;28;20116;-73
2023/10/01 12:36:44;;;;;;;9.90;5.20;;;29.30;54.20;;;;;;5073843;28;20099;-72
2023/10/01 12:44:36;;;;;;;8.13;4.88;;;27.90;55.00;;;;;;5074542;28;20032;-62
2023/10/01 12:47:06;;;;;;;8.18;4.78;;;28.30;55.90;;;;;;5073357;28;20483;-63
2023/10/01 12:49:33;;;;;;;10.35;5.00;;;28.60;54.90;;;;;;5073756;28;20490;-63
2023/10/01 12:52:03;;;;;;;8.10;4.72;;;28.50;55.60;;;;;;5073362;28;20070;-62
2023/10/01 12:54:29;;;;;;;7.07;4.82;;;29.00;55.10;;;;;;5073534;28;20031;-73
2023/10/01 12:57:38;;;;;;;8.43;4.65;;;29.70;53.80;;;;;;5073578;28;20368;-72
2023/10/01 13:00:21;;;;;;;10.02;5.53;;;30.40;52.90;;;;;;5069902;28;20411;-72
2023/10/01 13:02:43;;;;;;;7.60;4.90;;;30.80;51.60;;;;;;5073303;28;20107;-72
2023/10/01 13:08:07;;;;;;;8.80;4.97;;;29.80;52.80;;;;;;5059753;28;20033;-73
2023/10/01 13:10:34;;;;;;;8.23;4.20;;;30.10;51.80;;;;;;5073588;28;20101;-73
2023/10/01 13:13:02;;;;;;;9.10;4.53;;;29.70;52.70;;;;;;5073647;28;20115;-73
2023/10/01 13:15:30;;;;;;;7.23;4.67;;;29.60;52.60;;;;;;5072166;28;20028;-72
2023/10/01 13:18:00;;;;;;;7.70;4.70;;;29.30;52.90;;;;;;5073545;28;20275;-73
2023/10/01 13:20:28;;;;;;;7.75;4.97;;;29.00;53.00;;;;;;5075993;28;20033;-71
2023/10/01 13:23:07;;;;;;;8.75;5.30;;;28.40;53.00;;;;;;5075865;28;20075;-72
2023/10/01 13:25:36;;;;;;;7.63;4.53;;;28.40;53.50;;;;;;5077132;28;20024;-73
2023/10/01 13:28:06;;;;;;;8.23;4.97;;;29.00;53.40;;;;;;5075281;28;20025;-73
2023/10/01 13:31:03;;;;;;;8.15;4.85;;;29.30;52.10;;;;;;5075359;28;20392;-72
2023/10/01 13:33:23;;;;;;;11.55;5.40;;;29.30;52.50;;;;;;5076732;28;20033;-72
2023/10/01 13:36:12;;;;;;;9.57;5.43;;;29.40;51.80;;;;;;5077190;28;20029;-72
2023/10/01 14:08:45;;;;;;;10.43;5.75;;;26.00;55.30;;;;;;5076395;28;20423;-73
2023/10/01 14:11:15;;;;;;;11.90;5.85;;;25.50;56.50;;;;;;5075248;28;20468;-73
2023/10/01 14:13:44;;;;;;;11.93;6.07;;;25.50;56.70;;;;;;5075972;28;20460;-72
2023/10/01 14:16:17;;;;;;;9.60;6.15;;;25.30;56.90;;;;;;5076278;28;20020;-72
2023/10/01 14:18:55;;;;;;;11.90;5.82;;;25.30;56.70;;;;;;5076531;28;20029;-72
2023/10/01 14:21:25;;;;;;;10.07;5.50;;;25.20;56.70;;;;;;5075357;28;20033;-73
2023/10/01 14:23:52;;;;;;;13.15;5.55;;;25.30;57.10;;;;;;5074795;28;20031;-72
2023/10/01 14:26:26;;;;;;;11.30;5.72;;;25.10;57.60;;;;;;5076028;28;20070;-73
2023/10/01 14:28:55;;;;;;;11.43;5.75;;;24.80;58.40;;;;;;5074668;28;20112;-72
2023/10/01 14:34:08;;;;;;;11.48;5.75;;;24.60;58.90;;;;;;5075876;28;20215;-72
2023/10/01 14:36:39;;;;;;;11.45;5.75;;;24.50;59.60;;;;;;5075746;28;20021;-73
2023/10/01 14:39:06;;;;;;;12.60;6.00;;;24.40;60.10;;;;;;5074369;28;20082;-72
2023/10/01 14:41:37;;;;;;;10.18;4.90;;;24.20;60.90;;;;;;5075589;28;20099;-72
2023/10/01 14:44:04;;;;;;;11.73;5.93;;;24.00;60.40;;;;;;5075274;28;20457;-73